sensor_id;sensor_type;location;lat;lon;timestamp;pressure;altitude;pressure_sealevel;temperature;humidity
44044;BME280;29709;52.396;16.796;2023-04-20T00:00:33;102166.38;;;9.38;87.55
44044;BME280;29709;52.396;16.796;2023-04-20T00:03:47;102161.03;;;9.25;87.62
44044;BME280;29709;52.396;16.796;2023-04-20T00:07:00;102156.09;;;9.19;87.68
44044;BME280;29709;52.396;16.796;2023-04-20T00:10:13;102154.34;;;9.07;87.77
44044;BME280;29709;52.396;16.796;2023-04-20T00:13:26;102147.00;;;9.07;88.22
44044;BME280;29709;52.396;16.796;2023-04-20T00:16:39;102141.25;;;8.99;87.55
44044;BME280;29709;52.396;16.796;2023-04-20T00:19:52;102133.91;;;8.88;88.71
44044;BME280;29709;52.396;16.796;2023-04-20T00:23:06;102141.14;;;8.89;88.35
44044;BME280;29709;52.396;16.796;2023-04-20T00:26:19;102151.72;;;8.94;88.79
44044;BME280;29709;52.396;16.796;2023-04-20T00:29:33;102149.09;;;9.04;88.47
44044;BME280;29709;52.396;16.796;2023-04-20T00:32:46;102153.84;;;9.02;88.23
44044;BME280;29709;52.396;16.796;2023-04-20T00:35:59;102151.71;;;9.05;88.83
44044;BME280;29709;52.396;16.796;2023-04-20T00:39:12;102155.31;;;9.06;88.35
44044;BME280;29709;52.396;16.796;2023-04-20T00:42:26;102149.59;;;9.09;87.81
44044;BME280;29709;52.396;16.796;2023-04-20T00:45:39;102138.38;;;9.01;87.60
44044;BME280;29709;52.396;16.796;2023-04-20T00:48:53;102140.14;;;8.90;88.02
44044;BME280;29709;52.396;16.796;2023-04-20T00:52:07;102146.49;;;8.80;88.35
44044;BME280;29709;52.396;16.796;2023-04-20T00:55:21;102138.13;;;8.81;89.72
44044;BME280;29709;52.396;16.796;2023-04-20T00:58:35;102137.52;;;8.78;88.57
44044;BME280;29709;52.396;16.796;2023-04-20T01:01:49;102129.52;;;8.75;88.82
44044;BME280;29709;52.396;16.796;2023-04-20T01:05:03;102125.82;;;8.76;89.18
44044;BME280;29709;52.396;16.796;2023-04-20T01:08:16;102130.16;;;8.78;89.31
44044;BME280;29709;52.396;16.796;2023-04-20T01:11:29;102126.17;;;8.71;89.37
44044;BME280;29709;52.396;16.796;2023-04-20T01:14:42;102133.65;;;8.69;89.61
44044;BME280;29709;52.396;16.796;2023-04-20T01:17:55;102143.35;;;8.73;90.40
44044;BME280;29709;52.396;16.796;2023-04-20T01:21:11;102137.88;;;8.73;89.51
44044;BME280;29709;52.396;16.796;2023-04-20T01:24:24;102143.23;;;8.75;89.62
44044;BME280;29709;52.396;16.796;2023-04-20T01:27:37;102134.27;;;8.84;90.04
44044;BME280;29709;52.396;16.796;2023-04-20T01:30:51;102127.66;;;8.75;89.14
44044;BME280;29709;52.396;16.796;2023-04-20T01:34:04;102119.56;;;8.74;89.66
44044;BME280;29709;52.396;16.796;2023-04-20T01:37:17;102121.30;;;8.75;90.07
44044;BME280;29709;52.396;16.796;2023-04-20T01:40:30;102130.43;;;8.86;90.25
44044;BME280;29709;52.396;16.796;2023-04-20T01:43:43;102121.42;;;8.95;89.16
44044;BME280;29709;52.396;16.796;2023-04-20T01:46:56;102128.30;;;8.79;88.67
44044;BME280;29709;52.396;16.796;2023-04-20T01:50:10;102118.95;;;8.59;89.65
44044;BME280;29709;52.396;16.796;2023-04-20T01:53:23;102124.41;;;8.48;89.96
44044;BME280;29709;52.396;16.796;2023-04-20T01:56:37;102131.02;;;8.45;91.07
44044;BME280;29709;52.396;16.796;2023-04-20T01:59:50;102120.07;;;8.56;90.46
44044;BME280;29709;52.396;16.796;2023-04-20T02:03:03;102125.16;;;8.61;90.06
44044;BME280;29709;52.396;16.796;2023-04-20T02:06:17;102127.56;;;8.65;90.12
44044;BME280;29709;52.396;16.796;2023-04-20T02:09:30;102129.42;;;8.65;89.58
44044;BME280;29709;52.396;16.796;2023-04-20T02:12:44;102129.29;;;8.55;89.87
44044;BME280;29709;52.396;16.796;2023-04-20T02:15:57;102134.25;;;8.50;90.20
44044;BME280;29709;52.396;16.796;2023-04-20T02:19:10;102138.26;;;8.57;90.49
44044;BME280;29709;52.396;16.796;2023-04-20T02:22:24;102144.60;;;8.58;90.09
44044;BME280;29709;52.396;16.796;2023-04-20T02:25:37;102144.95;;;8.53;90.01
44044;BME280;29709;52.396;16.796;2023-04-20T02:28:50;102145.95;;;8.52;90.75
44044;BME280;29709;52.396;16.796;2023-04-20T02:32:04;102131.37;;;8.52;90.42
44044;BME280;29709;52.396;16.796;2023-04-20T02:35:19;102136.98;;;8.50;90.88
44044;BME280;29709;52.396;16.796;2023-04-20T02:38:32;102133.50;;;8.48;91.06
44044;BME280;29709;52.396;16.796;2023-04-20T02:41:46;102138.38;;;8.56;91.10
44044;BME280;29709;52.396;16.796;2023-04-20T02:44:59;102132.39;;;8.62;90.50
44044;BME280;29709;52.396;16.796;2023-04-20T02:48:12;102127.43;;;8.67;90.84
44044;BME280;29709;52.396;16.796;2023-04-20T02:51:25;102127.91;;;8.72;90.50
44044;BME280;29709;52.396;16.796;2023-04-20T02:54:39;102128.16;;;8.80;90.48
44044;BME280;29709;52.396;16.796;2023-04-20T02:57:52;102124.82;;;8.88;90.13
44044;BME280;29709;52.396;16.796;2023-04-20T03:01:05;102120.80;;;8.92;89.58
44044;BME280;29709;52.396;16.796;2023-04-20T03:04:19;102119.94;;;8.91;90.09
44044;BME280;29709;52.396;16.796;2023-04-20T03:07:33;102126.55;;;8.89;89.54
44044;BME280;29709;52.396;16.796;2023-04-20T03:10:47;102130.91;;;8.80;89.06
44044;BME280;29709;52.396;16.796;2023-04-20T03:14:00;102125.55;;;8.79;89.71
44044;BME280;29709;52.396;16.796;2023-04-20T03:17:14;102129.78;;;8.72;89.50
44044;BME280;29709;52.396;16.796;2023-04-20T03:20:27;102132.13;;;8.54;89.84
44044;BME280;29709;52.396;16.796;2023-04-20T03:23:40;102119.28;;;8.43;90.79
44044;BME280;29709;52.396;16.796;2023-04-20T03:26:53;102128.14;;;8.47;91.60
44044;BME280;29709;52.396;16.796;2023-04-20T03:30:07;102125.78;;;8.53;91.74
44044;BME280;29709;52.396;16.796;2023-04-20T03:33:21;102137.02;;;8.73;91.20
44044;BME280;29709;52.396;16.796;2023-04-20T03:36:34;102143.88;;;8.78;90.04
44044;BME280;29709;52.396;16.796;2023-04-20T03:39:48;102134.65;;;8.79;89.90
44044;BME280;29709;52.396;16.796;2023-04-20T03:43:01;102138.74;;;8.74;89.50
44044;BME280;29709;52.396;16.796;2023-04-20T03:46:14;102140.12;;;8.57;89.55
44044;BME280;29709;52.396;16.796;2023-04-20T03:49:28;102131.11;;;8.44;89.81
44044;BME280;29709;52.396;16.796;2023-04-20T03:52:41;102133.61;;;8.35;90.81
44044;BME280;29709;52.396;16.796;2023-04-20T03:55:54;102145.44;;;8.36;91.15
44044;BME280;29709;52.396;16.796;2023-04-20T03:59:08;102140.70;;;8.38;92.38
44044;BME280;29709;52.396;16.796;2023-04-20T04:02:21;102128.77;;;8.50;91.31
44044;BME280;29709;52.396;16.796;2023-04-20T04:05:35;102132.91;;;8.56;91.20
44044;BME280;29709;52.396;16.796;2023-04-20T04:08:48;102136.64;;;8.55;90.89
44044;BME280;29709;52.396;16.796;2023-04-20T04:12:02;102133.63;;;8.47;90.82
44044;BME280;29709;52.396;16.796;2023-04-20T04:15:18;102127.64;;;8.53;90.91
44044;BME280;29709;52.396;16.796;2023-04-20T04:18:31;102130.65;;;8.72;91.58
44044;BME280;29709;52.396;16.796;2023-04-20T04:21:44;102136.65;;;8.88;91.11
44044;BME280;29709;52.396;16.796;2023-04-20T04:24:58;102136.51;;;9.01;90.54
44044;BME280;29709;52.396;16.796;2023-04-20T04:28:11;102138.37;;;9.12;90.10
44044;BME280;29709;52.396;16.796;2023-04-20T04:31:27;102136.01;;;9.18;89.51
44044;BME280;29709;52.396;16.796;2023-04-20T04:34:40;102152.67;;;9.26;89.53
44044;BME280;29709;52.396;16.796;2023-04-20T04:37:56;102148.70;;;9.31;88.95
44044;BME280;29709;52.396;16.796;2023-04-20T04:41:10;102146.70;;;9.33;89.12
44044;BME280;29709;52.396;16.796;2023-04-20T04:44:27;102161.41;;;9.32;89.13
44044;BME280;29709;52.396;16.796;2023-04-20T04:47:41;102149.05;;;9.37;89.19
44044;BME280;29709;52.396;16.796;2023-04-20T04:50:55;102157.02;;;9.51;89.12
44044;BME280;29709;52.396;16.796;2023-04-20T04:54:08;102158.49;;;9.55;88.88
44044;BME280;29709;52.396;16.796;2023-04-20T04:57:21;102152.37;;;9.63;88.76
44044;BME280;29709;52.396;16.796;2023-04-20T05:00:34;102153.84;;;9.67;88.27
44044;BME280;29709;52.396;16.796;2023-04-20T05:03:48;102156.95;;;9.74;88.19
44044;BME280;29709;52.396;16.796;2023-04-20T05:07:01;102149.18;;;9.79;88.23
44044;BME280;29709;52.396;16.796;2023-04-20T05:10:14;102148.67;;;9.85;87.61
44044;BME280;29709;52.396;16.796;2023-04-20T05:13:28;102156.95;;;9.74;87.90
44044;BME280;29709;52.396;16.796;2023-04-20T05:16:41;102152.50;;;9.62;88.00
44044;BME280;29709;52.396;16.796;2023-04-20T05:19:54;102147.52;;;9.55;88.35
44044;BME280;29709;52.396;16.796;2023-04-20T05:23:07;102152.90;;;9.46;88.68
44044;BME280;29709;52.396;16.796;2023-04-20T05:26:20;102150.18;;;9.35;89.05
44044;BME280;29709;52.396;16.796;2023-04-20T05:29:34;102146.84;;;9.31;89.39
44044;BME280;29709;52.396;16.796;2023-04-20T05:32:48;102148.57;;;9.32;89.66
44044;BME280;29709;52.396;16.796;2023-04-20T05:36:03;102150.69;;;9.40;89.34
44044;BME280;29709;52.396;16.796;2023-04-20T05:39:16;102153.16;;;9.43;89.54
44044;BME280;29709;52.396;16.796;2023-04-20T05:42:29;102150.16;;;9.46;89.55
44044;BME280;29709;52.396;16.796;2023-04-20T05:45:42;102155.12;;;9.63;89.56
44044;BME280;29709;52.396;16.796;2023-04-20T05:48:56;102157.65;;;9.87;90.09
44044;BME280;29709;52.396;16.796;2023-04-20T05:52:09;102151.05;;;10.22;89.02
44044;BME280;29709;52.396;16.796;2023-04-20T05:55:22;102159.89;;;10.46;88.82
44044;BME280;29709;52.396;16.796;2023-04-20T05:58:36;102155.69;;;10.73;87.59
44044;BME280;29709;52.396;16.796;2023-04-20T06:01:49;102156.52;;;10.94;87.38
44044;BME280;29709;52.396;16.796;2023-04-20T06:05:03;102146.22;;;11.17;86.92
44044;BME280;29709;52.396;16.796;2023-04-20T06:08:17;102143.60;;;11.25;85.60
44044;BME280;29709;52.396;16.796;2023-04-20T06:11:33;102158.19;;;11.46;85.11
44044;BME280;29709;52.396;16.796;2023-04-20T06:14:46;102154.85;;;11.52;84.90
44044;BME280;29709;52.396;16.796;2023-04-20T06:17:59;102162.13;;;11.73;84.22
44044;BME280;29709;52.396;16.796;2023-04-20T06:21:13;102160.76;;;11.88;82.37
44044;BME280;29709;52.396;16.796;2023-04-20T06:24:29;102158.98;;;11.87;81.53
44044;BME280;29709;52.396;16.796;2023-04-20T06:27:42;102163.07;;;12.02;83.25
44044;BME280;29709;52.396;16.796;2023-04-20T06:30:55;102158.52;;;12.50;82.32
44044;BME280;29709;52.396;16.796;2023-04-20T06:34:08;102166.40;;;12.91;82.07
44044;BME280;29709;52.396;16.796;2023-04-20T06:37:22;102172.00;;;13.19;81.33
44044;BME280;29709;52.396;16.796;2023-04-20T06:40:35;102166.78;;;13.43;80.18
44044;BME280;29709;52.396;16.796;2023-04-20T06:43:48;102173.17;;;13.71;77.54
44044;BME280;29709;52.396;16.796;2023-04-20T06:47:02;102169.01;;;14.03;79.33
44044;BME280;29709;52.396;16.796;2023-04-20T06:50:15;102164.91;;;14.07;76.27
44044;BME280;29709;52.396;16.796;2023-04-20T06:53:28;102169.18;;;14.19;78.07
44044;BME280;29709;52.396;16.796;2023-04-20T06:56:42;102167.56;;;14.34;76.59
44044;BME280;29709;52.396;16.796;2023-04-20T06:59:55;102161.19;;;14.52;75.41
44044;BME280;29709;52.396;16.796;2023-04-20T07:03:10;102157.29;;;14.62;74.30
44044;BME280;29709;52.396;16.796;2023-04-20T07:06:23;102157.39;;;14.53;72.17
44044;BME280;29709;52.396;16.796;2023-04-20T07:09:39;102170.25;;;14.44;72.51
44044;BME280;29709;52.396;16.796;2023-04-20T07:12:52;102174.21;;;14.41;69.10
44044;BME280;29709;52.396;16.796;2023-04-20T07:16:05;102180.07;;;14.38;70.60
44044;BME280;29709;52.396;16.796;2023-04-20T07:19:19;102175.95;;;14.42;67.56
44044;BME280;29709;52.396;16.796;2023-04-20T07:22:33;102176.59;;;14.54;70.70
44044;BME280;29709;52.396;16.796;2023-04-20T07:25:48;102184.77;;;14.82;69.60
44044;BME280;29709;52.396;16.796;2023-04-20T07:29:01;102190.11;;;15.09;69.37
44044;BME280;29709;52.396;16.796;2023-04-20T07:32:14;102196.61;;;15.26;68.75
44044;BME280;29709;52.396;16.796;2023-04-20T07:35:28;102186.49;;;15.43;66.90
44044;BME280;29709;52.396;16.796;2023-04-20T07:38:41;102194.30;;;15.47;66.13
44044;BME280;29709;52.396;16.796;2023-04-20T07:41:55;102190.43;;;15.32;64.19
44044;BME280;29709;52.396;16.796;2023-04-20T07:45:10;102188.95;;;15.20;65.98
44044;BME280;29709;52.396;16.796;2023-04-20T07:48:24;102206.46;;;15.54;66.68
44044;BME280;29709;52.396;16.796;2023-04-20T07:51:37;102200.16;;;15.78;65.43
44044;BME280;29709;52.396;16.796;2023-04-20T07:54:51;102199.78;;;15.73;65.41
44044;BME280;29709;52.396;16.796;2023-04-20T07:58:10;102194.27;;;15.81;63.29
44044;BME280;29709;52.396;16.796;2023-04-20T08:01:25;102202.64;;;15.98;65.76
44044;BME280;29709;52.396;16.796;2023-04-20T08:04:39;102199.69;;;15.99;62.11
44044;BME280;29709;52.396;16.796;2023-04-20T08:07:52;102197.46;;;16.11;64.92
44044;BME280;29709;52.396;16.796;2023-04-20T08:11:05;102197.67;;;16.26;62.28
44044;BME280;29709;52.396;16.796;2023-04-20T08:14:20;102204.25;;;16.33;62.60
44044;BME280;29709;52.396;16.796;2023-04-20T08:17:33;102191.92;;;16.35;61.93
44044;BME280;29709;52.396;16.796;2023-04-20T08:20:46;102201.50;;;16.57;62.64
44044;BME280;29709;52.396;16.796;2023-04-20T08:25:28;102204.64;;;16.79;62.28
44044;BME280;29709;52.396;16.796;2023-04-20T08:28:44;102207.57;;;16.85;61.01
44044;BME280;29709;52.396;16.796;2023-04-20T08:31:57;102204.78;;;17.01;60.75
44044;BME280;29709;52.396;16.796;2023-04-20T08:35:11;102203.86;;;17.17;59.28
44044;BME280;29709;52.396;16.796;2023-04-20T08:38:25;102212.06;;;17.02;56.91
44044;BME280;29709;52.396;16.796;2023-04-20T08:41:38;102211.03;;;16.87;58.27
44044;BME280;29709;52.396;16.796;2023-04-20T08:44:51;102211.21;;;16.86;58.66
44044;BME280;29709;52.396;16.796;2023-04-20T08:48:06;102213.26;;;17.08;58.39
44044;BME280;29709;52.396;16.796;2023-04-20T08:51:22;102203.68;;;17.19;56.99
44044;BME280;29709;52.396;16.796;2023-04-20T08:54:36;102206.80;;;17.24;57.27
44044;BME280;29709;52.396;16.796;2023-04-20T08:57:50;102207.45;;;17.42;59.19
44044;BME280;29709;52.396;16.796;2023-04-20T09:01:03;102206.13;;;17.61;58.66
44044;BME280;29709;52.396;16.796;2023-04-20T09:04:22;102207.52;;;17.65;58.68
44044;BME280;29709;52.396;16.796;2023-04-20T09:07:36;102205.92;;;17.79;57.99
44044;BME280;29709;52.396;16.796;2023-04-20T09:10:49;102205.92;;;17.79;54.86
44044;BME280;29709;52.396;16.796;2023-04-20T09:14:04;102207.15;;;17.76;55.12
44044;BME280;29709;52.396;16.796;2023-04-20T09:20:43;102204.12;;;17.94;57.02
44044;BME280;29709;52.396;16.796;2023-04-20T09:23:58;102211.66;;;18.08;56.17
44044;BME280;29709;52.396;16.796;2023-04-20T09:27:16;102204.62;;;18.21;55.97
44044;BME280;29709;52.396;16.796;2023-04-20T09:30:36;102218.23;;;18.15;56.28
44044;BME280;29709;52.396;16.796;2023-04-20T09:33:56;102215.02;;;18.50;56.60
44044;BME280;29709;52.396;16.796;2023-04-20T09:37:14;102213.02;;;18.66;54.75
44044;BME280;29709;52.396;16.796;2023-04-20T09:40:28;102203.44;;;18.84;54.08
44044;BME280;29709;52.396;16.796;2023-04-20T09:43:42;102209.67;;;18.86;52.36
44044;BME280;29709;52.396;16.796;2023-04-20T09:46:57;102203.70;;;18.74;50.87
44044;BME280;29709;52.396;16.796;2023-04-20T09:50:11;102199.63;;;18.39;50.47
44044;BME280;29709;52.396;16.796;2023-04-20T09:53:24;102206.11;;;18.31;52.70
44044;BME280;29709;52.396;16.796;2023-04-20T09:56:38;102213.83;;;18.21;52.88
44044;BME280;29709;52.396;16.796;2023-04-20T09:59:53;102215.05;;;17.96;53.33
44044;BME280;29709;52.396;16.796;2023-04-20T10:03:06;102223.81;;;17.84;53.26
44044;BME280;29709;52.396;16.796;2023-04-20T10:06:23;102218.59;;;17.81;53.63
44044;BME280;29709;52.396;16.796;2023-04-20T10:09:39;102219.45;;;17.82;54.38
44044;BME280;29709;52.396;16.796;2023-04-20T10:12:58;102214.59;;;17.84;55.07
44044;BME280;29709;52.396;16.796;2023-04-20T10:16:19;102212.91;;;18.06;55.53
44044;BME280;29709;52.396;16.796;2023-04-20T10:26:20;102206.91;;;18.40;53.91
44044;BME280;29709;52.396;16.796;2023-04-20T10:29:34;102203.38;;;18.23;53.91
44044;BME280;29709;52.396;16.796;2023-04-20T10:32:48;102203.09;;;18.18;54.32
44044;BME280;29709;52.396;16.796;2023-04-20T10:36:01;102201.16;;;18.18;54.03
44044;BME280;29709;52.396;16.796;2023-04-20T10:39:20;102203.99;;;18.10;51.94
44044;BME280;29709;52.396;16.796;2023-04-20T10:42:41;102203.17;;;18.02;52.20
44044;BME280;29709;52.396;16.796;2023-04-20T10:45:55;102187.30;;;18.10;50.39
44044;BME280;29709;52.396;16.796;2023-04-20T10:49:08;102195.84;;;18.32;52.80
44044;BME280;29709;52.396;16.796;2023-04-20T10:55:59;102175.57;;;18.46;49.22
44044;BME280;29709;52.396;16.796;2023-04-20T10:59:17;102185.03;;;18.37;50.54
44044;BME280;29709;52.396;16.796;2023-04-20T11:02:31;102177.84;;;18.42;50.35
44044;BME280;29709;52.396;16.796;2023-04-20T11:05:49;102173.45;;;18.71;51.80
44044;BME280;29709;52.396;16.796;2023-04-20T11:09:14;102162.08;;;19.10;49.64
44044;BME280;29709;52.396;16.796;2023-04-20T11:12:22;102170.44;;;19.10;48.29
44044;BME280;29709;52.396;16.796;2023-04-20T11:15:35;102169.49;;;19.18;48.40
44044;BME280;29709;52.396;16.796;2023-04-20T11:18:50;102171.40;;;19.32;48.95
44044;BME280;29709;52.396;16.796;2023-04-20T11:22:04;102171.88;;;19.65;48.69
44044;BME280;29709;52.396;16.796;2023-04-20T11:25:18;102167.26;;;19.57;48.33
44044;BME280;29709;52.396;16.796;2023-04-20T11:28:31;102172.84;;;19.43;47.61
44044;BME280;29709;52.396;16.796;2023-04-20T11:31:50;102166.69;;;19.32;46.47
44044;BME280;29709;52.396;16.796;2023-04-20T11:35:05;102166.86;;;19.16;45.95
44044;BME280;29709;52.396;16.796;2023-04-20T11:38:26;102175.48;;;18.77;47.46
44044;BME280;29709;52.396;16.796;2023-04-20T11:41:40;102168.73;;;18.71;48.41
44044;BME280;29709;52.396;16.796;2023-04-20T11:44:54;102161.29;;;18.87;49.00
44044;BME280;29709;52.396;16.796;2023-04-20T11:48:08;102162.37;;;19.30;48.23
44044;BME280;29709;52.396;16.796;2023-04-20T11:51:22;102152.24;;;19.73;46.30
44044;BME280;29709;52.396;16.796;2023-04-20T11:54:35;102158.11;;;20.00;45.91
44044;BME280;29709;52.396;16.796;2023-04-20T11:57:48;102172.06;;;20.00;44.23
44044;BME280;29709;52.396;16.796;2023-04-20T12:01:02;102159.90;;;19.86;43.68
44044;BME280;29709;52.396;16.796;2023-04-20T12:04:17;102166.39;;;19.72;44.06
44044;BME280;29709;52.396;16.796;2023-04-20T12:07:30;102163.70;;;19.64;45.25
44044;BME280;29709;52.396;16.796;2023-04-20T12:10:44;102171.26;;;19.84;45.24
44044;BME280;29709;52.396;16.796;2023-04-20T12:13:57;102168.07;;;19.87;44.51
44044;BME280;29709;52.396;16.796;2023-04-20T12:17:12;102166.45;;;19.78;45.07
44044;BME280;29709;52.396;16.796;2023-04-20T12:20:25;102155.61;;;19.54;45.56
44044;BME280;29709;52.396;16.796;2023-04-20T12:23:38;102161.59;;;19.66;45.60
44044;BME280;29709;52.396;16.796;2023-04-20T12:26:52;102156.66;;;19.68;45.79
44044;BME280;29709;52.396;16.796;2023-04-20T12:30:07;102159.74;;;19.73;45.10
44044;BME280;29709;52.396;16.796;2023-04-20T12:33:21;102154.02;;;19.59;45.42
44044;BME280;29709;52.396;16.796;2023-04-20T12:36:34;102156.30;;;19.41;46.26
44044;BME280;29709;52.396;16.796;2023-04-20T12:39:48;102155.70;;;19.46;47.25
44044;BME280;29709;52.396;16.796;2023-04-20T12:43:01;102149.06;;;19.47;47.29
44044;BME280;29709;52.396;16.796;2023-04-20T12:46:15;102142.17;;;19.43;46.78
44044;BME280;29709;52.396;16.796;2023-04-20T12:49:29;102143.89;;;19.44;47.39
44044;BME280;29709;52.396;16.796;2023-04-20T12:52:42;102143.02;;;19.58;46.82
44044;BME280;29709;52.396;16.796;2023-04-20T12:55:55;102128.30;;;19.64;47.14
44044;BME280;29709;52.396;16.796;2023-04-20T12:59:08;102133.29;;;19.69;46.89
44044;BME280;29709;52.396;16.796;2023-04-20T13:02:22;102135.20;;;19.83;47.13
44044;BME280;29709;52.396;16.796;2023-04-20T13:05:36;102119.57;;;19.88;46.69
44044;BME280;29709;52.396;16.796;2023-04-20T13:08:49;102131.25;;;19.77;46.20
44044;BME280;29709;52.396;16.796;2023-04-20T13:12:03;102130.81;;;19.95;46.47
44044;BME280;29709;52.396;16.796;2023-04-20T13:15:17;102127.16;;;19.95;45.40
44044;BME280;29709;52.396;16.796;2023-04-20T13:18:33;102127.70;;;19.69;45.69
44044;BME280;29709;52.396;16.796;2023-04-20T13:21:46;102116.40;;;19.55;46.34
44044;BME280;29709;52.396;16.796;2023-04-20T13:25:05;102116.76;;;19.67;46.42
44044;BME280;29709;52.396;16.796;2023-04-20T13:28:18;102123.09;;;19.76;46.73
44044;BME280;29709;52.396;16.796;2023-04-20T13:31:36;102120.09;;;19.77;45.58
44044;BME280;29709;52.396;16.796;2023-04-20T13:34:50;102120.32;;;19.46;45.99
44044;BME280;29709;52.396;16.796;2023-04-20T13:38:04;102121.79;;;19.42;46.42
44044;BME280;29709;52.396;16.796;2023-04-20T13:41:17;102133.61;;;19.44;46.74
44044;BME280;29709;52.396;16.796;2023-04-20T13:44:30;102118.70;;;19.52;46.27
44044;BME280;29709;52.396;16.796;2023-04-20T13:47:44;102114.45;;;19.71;46.52
44044;BME280;29709;52.396;16.796;2023-04-20T13:50:59;102116.32;;;19.85;46.32
44044;BME280;29709;52.396;16.796;2023-04-20T13:54:13;102114.80;;;19.82;45.39
44044;BME280;29709;52.396;16.796;2023-04-20T13:57:26;102101.74;;;19.68;45.72
44044;BME280;29709;52.396;16.796;2023-04-20T14:00:39;102107.33;;;19.68;46.22
44044;BME280;29709;52.396;16.796;2023-04-20T14:03:54;102107.81;;;19.72;45.03
44044;BME280;29709;52.396;16.796;2023-04-20T14:07:07;102116.20;;;19.57;44.31
44044;BME280;29709;52.396;16.796;2023-04-20T14:10:20;102104.36;;;19.55;44.33
44044;BME280;29709;52.396;16.796;2023-04-20T14:13:34;102107.52;;;19.67;44.07
44044;BME280;29709;52.396;16.796;2023-04-20T14:16:48;102099.91;;;19.75;43.84
44044;BME280;29709;52.396;16.796;2023-04-20T14:20:01;102092.73;;;19.87;44.45
44044;BME280;29709;52.396;16.796;2023-04-20T14:23:15;102093.59;;;20.09;45.13
44044;BME280;29709;52.396;16.796;2023-04-20T14:26:28;102095.60;;;20.15;43.79
44044;BME280;29709;52.396;16.796;2023-04-20T14:29:42;102090.47;;;20.19;44.40
44044;BME280;29709;52.396;16.796;2023-04-20T14:32:57;102086.16;;;20.16;43.22
44044;BME280;29709;52.396;16.796;2023-04-20T14:36:11;102090.80;;;20.09;43.25
44044;BME280;29709;52.396;16.796;2023-04-20T14:39:25;102081.99;;;20.06;42.76
44044;BME280;29709;52.396;16.796;2023-04-20T14:42:38;102083.58;;;19.94;42.62
44044;BME280;29709;52.396;16.796;2023-04-20T14:45:51;102083.70;;;19.85;42.79
44044;BME280;29709;52.396;16.796;2023-04-20T14:49:04;102081.78;;;19.86;43.66
44044;BME280;29709;52.396;16.796;2023-04-20T14:52:17;102075.79;;;19.89;44.24
44044;BME280;29709;52.396;16.796;2023-04-20T14:55:30;102087.49;;;19.99;43.95
44044;BME280;29709;52.396;16.796;2023-04-20T14:58:44;102073.52;;;20.21;43.18
44044;BME280;29709;52.396;16.796;2023-04-20T15:01:59;102090.34;;;20.27;43.48
44044;BME280;29709;52.396;16.796;2023-04-20T15:05:13;102097.58;;;20.00;44.37
44044;BME280;29709;52.396;16.796;2023-04-20T15:08:27;102094.93;;;19.71;44.54
44044;BME280;29709;52.396;16.796;2023-04-20T15:11:40;102098.41;;;19.43;44.73
44044;BME280;29709;52.396;16.796;2023-04-20T15:14:53;102098.73;;;19.33;45.54
44044;BME280;29709;52.396;16.796;2023-04-20T15:18:07;102086.61;;;19.26;46.30
44044;BME280;29709;52.396;16.796;2023-04-20T15:21:21;102094.41;;;19.16;46.11
44044;BME280;29709;52.396;16.796;2023-04-20T15:24:35;102085.95;;;19.24;46.27
44044;BME280;29709;52.396;16.796;2023-04-20T15:27:48;102086.10;;;19.38;45.74
44044;BME280;29709;52.396;16.796;2023-04-20T15:31:01;102082.95;;;19.41;45.39
44044;BME280;29709;52.396;16.796;2023-04-20T15:34:15;102071.50;;;19.50;45.89
44044;BME280;29709;52.396;16.796;2023-04-20T15:37:29;102081.56;;;19.66;45.99
44044;BME280;29709;52.396;16.796;2023-04-20T15:40:42;102077.47;;;19.83;45.75
44044;BME280;29709;52.396;16.796;2023-04-20T15:43:55;102082.06;;;19.91;44.44
44044;BME280;29709;52.396;16.796;2023-04-20T15:47:09;102087.34;;;19.65;44.32
44044;BME280;29709;52.396;16.796;2023-04-20T15:50:23;102095.43;;;19.45;44.06
44044;BME280;29709;52.396;16.796;2023-04-20T15:53:36;102092.02;;;19.28;43.98
44044;BME280;29709;52.396;16.796;2023-04-20T15:56:50;102077.89;;;19.15;45.13
44044;BME280;29709;52.396;16.796;2023-04-20T16:00:04;102087.50;;;19.12;45.41
44044;BME280;29709;52.396;16.796;2023-04-20T16:03:17;102090.55;;;19.17;45.88
44044;BME280;29709;52.396;16.796;2023-04-20T16:06:30;102094.97;;;19.26;45.84
44044;BME280;29709;52.396;16.796;2023-04-20T16:09:44;102090.95;;;19.29;45.57
44044;BME280;29709;52.396;16.796;2023-04-20T16:12:57;102090.36;;;19.33;46.19
44044;BME280;29709;52.396;16.796;2023-04-20T16:16:17;102086.80;;;19.40;45.93
44044;BME280;29709;52.396;16.796;2023-04-20T16:19:30;102093.90;;;19.42;46.23
44044;BME280;29709;52.396;16.796;2023-04-20T16:22:43;102093.71;;;19.44;45.34
44044;BME280;29709;52.396;16.796;2023-04-20T16:25:57;102090.05;;;19.43;44.84
44044;BME280;29709;52.396;16.796;2023-04-20T16:29:10;102092.24;;;19.48;44.34
44044;BME280;29709;52.396;16.796;2023-04-20T16:32:24;102087.36;;;19.50;44.57
44044;BME280;29709;52.396;16.796;2023-04-20T16:35:37;102089.66;;;19.61;44.42
44044;BME280;29709;52.396;16.796;2023-04-20T16:38:50;102097.75;;;19.56;44.05
44044;BME280;29709;52.396;16.796;2023-04-20T16:42:03;102106.38;;;19.46;41.37
44044;BME280;29709;52.396;16.796;2023-04-20T16:45:17;102105.36;;;19.32;40.69
44044;BME280;29709;52.396;16.796;2023-04-20T16:48:30;102111.12;;;19.16;42.39
44044;BME280;29709;52.396;16.796;2023-04-20T16:51:44;102108.06;;;18.82;45.36
44044;BME280;29709;52.396;16.796;2023-04-20T16:54:57;102115.87;;;18.63;46.41
44044;BME280;29709;52.396;16.796;2023-04-20T16:58:10;102118.91;;;18.39;48.33